Aeroporto :
LOGIN :

Iscrizione | Disclaimer

   EN    FR    IT 

 










Sommario :    VFR   VFR Marginale   IFR   IFR Intensivo   IFR Molto Intensivo
Visibilità : 
Base nubi : 
>= 8 km
>= 3000ft
5 / 8 km
1000 / 3000 ft
1500m / 5 km
500 / 1000 ft
800 / 1500m
200 / 500 ft
< 800m
< 200 ft
Simboli :   Temporali  Nebbia  Neve Forte  Precipitazioni Forti  Vento > 20 kt
SIGMETs :   Varie  Temporali  Ghiacco  Turbolenza  Onda orograficha  Ceneri Vulcaniche






- Altitudine del aeroporto : 33 ft
- Codice IATA : MHZ


EGUN - RAF Mildenhall

ULTIMO METAR :
  • 251656Z AUTO 27008KT 9999 CLR 24/04 A3049 RMK AO2 SLP328 T02380042 $

METARs OBSOLETI :
  • 251556Z AUTO 28006G14KT 9999 CLR 24/04 A3050 RMK AO2 SLP331 T02440042 $
  • 251456Z AUTO 30005KT 9999 CLR 25/06 A3050 RMK AO2 SLP331 T02450058 57010 .

TAF TAF EGUN
Valido dal 25 a 17 ore il 26 a 23 ore UTC


251700Z 2517/2623 28009KT 9999 FEW040 QNH3050INS
BECMG 2616/2617 30010G15KT 9999 BKN020 QNH3055INS TX22/2517Z TN09/2604Z



MetMap, La meteo Aeronautica in un colpo d'occhio ! - Copyright ORBIFLY Dicembre 2007 - Disclaimer

ORBIFLY MET'MAP TEAM :

Programmazione e sviluppo : Alexandra Zaïnal
Concezione : Baudouin d'Aumeries
Aiuto per la programmazione : Marc-Olivier Méhu
Supporto tecnico e logistico : Manuel Goepfert
Aiuto per la traduzione : Arnaldo La Scala

Contatto : metmap@orbifly.com




FONTI E CREDITI :

   NOAA